createdAt,value
2023-05-22T00:01:49.448Z,99.90
2023-05-22T00:04:52.998Z,99.90
2023-05-22T00:07:56.395Z,99.90
2023-05-22T00:10:59.812Z,99.90
2023-05-22T00:14:03.204Z,99.90
2023-05-22T00:17:08.032Z,99.90
2023-05-22T00:20:13.989Z,99.90
2023-05-22T00:23:17.340Z,99.90
2023-05-22T00:26:22.429Z,99.90
2023-05-22T00:29:25.724Z,99.90
2023-05-22T00:32:30.878Z,99.90
2023-05-22T00:35:34.814Z,99.90
2023-05-22T00:38:38.384Z,99.90
2023-05-22T00:41:42.185Z,99.90
2023-05-22T00:44:45.997Z,99.90
2023-05-22T00:47:50.776Z,99.90
2023-05-22T00:50:56.468Z,99.90
2023-05-22T00:54:00.167Z,99.90
2023-05-22T00:57:04.115Z,99.90
2023-05-22T01:00:10.898Z,99.90
2023-05-22T01:03:16.628Z,99.90
2023-05-22T01:06:21.508Z,99.90
2023-05-22T01:09:25.070Z,99.90
2023-05-22T01:12:35.815Z,99.90
2023-05-22T01:15:44.823Z,99.90
2023-05-22T01:18:59.229Z,99.90
2023-05-22T01:22:17.724Z,99.90
2023-05-22T01:25:50.653Z,99.90
2023-05-22T01:29:10.131Z,99.90
2023-05-22T01:32:21.869Z,99.90
2023-05-22T01:35:29.797Z,99.90
2023-05-22T01:38:35.222Z,99.90
2023-05-22T01:41:39.525Z,99.90
2023-05-22T01:44:43.075Z,99.90
2023-05-22T01:47:47.683Z,99.90
2023-05-22T01:50:54.876Z,99.90
2023-05-22T01:54:06.004Z,99.90
2023-05-22T01:57:14.438Z,99.90
2023-05-22T02:03:42.076Z,99.90
2023-05-22T02:06:47.171Z,99.90
2023-05-22T02:09:51.890Z,99.90
2023-05-22T02:12:55.246Z,99.90
2023-05-22T02:15:59.500Z,99.90
2023-05-22T02:19:06.684Z,99.90
2023-05-22T02:22:13.793Z,99.90
2023-05-22T02:25:17.745Z,99.90
2023-05-22T02:28:21.903Z,99.90
2023-05-22T02:31:25.218Z,99.90
2023-05-22T02:34:31.616Z,99.90
2023-05-22T02:37:35.830Z,99.90
2023-05-22T02:40:39.520Z,99.90
2023-05-22T02:43:43.160Z,99.90
2023-05-22T02:46:47.394Z,99.90
2023-05-22T02:49:52.085Z,99.90
2023-05-22T02:52:55.443Z,99.90
2023-05-22T02:55:59.826Z,99.90
2023-05-22T02:59:03.218Z,99.90
2023-05-22T03:02:07.326Z,99.90
2023-05-22T03:05:12.117Z,99.90
2023-05-22T03:08:16.727Z,99.90
2023-05-22T03:11:19.972Z,99.90
2023-05-22T03:14:23.178Z,99.90
2023-05-22T03:17:26.697Z,99.90
2023-05-22T03:20:32.763Z,99.90
2023-05-22T03:23:36.214Z,99.90
2023-05-22T03:26:39.981Z,99.90
2023-05-22T03:29:46.057Z,99.90
2023-05-22T03:32:49.547Z,99.90
2023-05-22T03:35:54.324Z,99.90
2023-05-22T03:38:57.967Z,99.90
2023-05-22T03:42:01.253Z,99.90
2023-05-22T03:45:06.361Z,99.90
2023-05-22T03:48:10.631Z,99.90
2023-05-22T03:51:18.058Z,99.90
2023-05-22T03:54:22.701Z,99.90
2023-05-22T03:57:25.908Z,99.90
2023-05-22T04:00:29.256Z,99.90
2023-05-22T04:03:32.475Z,99.90
2023-05-22T04:06:43.058Z,99.90
2023-05-22T04:09:49.327Z,99.90
2023-05-22T04:12:52.659Z,99.90
2023-05-22T04:15:56.875Z,99.90
2023-05-22T04:19:01.773Z,99.90
2023-05-22T04:22:06.794Z,99.90
2023-05-22T04:25:10.842Z,99.90
2023-05-22T04:28:14.435Z,99.90
2023-05-22T04:31:18.504Z,99.90
2023-05-22T04:34:21.909Z,99.90
2023-05-22T04:37:28.807Z,99.90
2023-05-22T04:40:33.714Z,99.90
2023-05-22T04:43:38.773Z,99.90
2023-05-22T04:46:43.911Z,99.90
2023-05-22T04:49:47.511Z,99.90
2023-05-22T04:52:53.481Z,99.90
2023-05-22T04:55:57.037Z,99.90
2023-05-22T04:59:01.281Z,99.90
2023-05-22T05:02:04.735Z,99.90
2023-05-22T05:05:08.973Z,99.90
2023-05-22T05:08:17.428Z,99.90
2023-05-22T05:11:21.753Z,99.90
2023-05-22T05:14:25.407Z,99.90
2023-05-22T05:17:28.897Z,99.90
2023-05-22T05:20:32.367Z,99.90
2023-05-22T05:23:37.036Z,99.90
2023-05-22T05:26:40.620Z,99.90
2023-05-22T05:29:44.592Z,99.90
2023-05-22T05:33:00.276Z,99.90
2023-05-22T05:36:11.220Z,99.90
2023-05-22T05:39:16.276Z,99.90
2023-05-22T05:42:19.901Z,99.90
2023-05-22T05:45:24.967Z,99.90
2023-05-22T05:48:28.931Z,99.90
2023-05-22T05:51:32.856Z,99.90
2023-05-22T05:54:37.641Z,97.60
2023-05-22T05:57:48.643Z,74.20
2023-05-22T06:00:59.548Z,84.30
2023-05-22T06:04:05.426Z,74.90
2023-05-22T06:07:12.509Z,60.10
2023-05-22T06:10:22.865Z,28.10
2023-05-22T06:13:34.679Z,1.00
2023-05-22T06:16:38.049Z,1.00
2023-05-22T06:19:42.228Z,1.00
2023-05-22T06:22:45.865Z,1.00
2023-05-22T06:25:50.936Z,1.00
2023-05-22T06:28:54.672Z,1.00
2023-05-22T06:32:00.170Z,1.00
2023-05-22T06:35:05.978Z,1.00
2023-05-22T06:38:09.889Z,1.00
2023-05-22T06:41:15.466Z,1.00
2023-05-22T06:44:19.198Z,1.00
2023-05-22T06:47:29.683Z,1.00
2023-05-22T06:50:33.738Z,1.00
2023-05-22T06:53:37.071Z,99.90
2023-05-22T06:56:47.172Z,1.00
2023-05-22T06:59:54.469Z,1.00
2023-05-22T07:03:21.319Z,1.00
2023-05-22T07:06:54.108Z,99.90
2023-05-22T07:09:58.104Z,1.00
2023-05-22T07:13:02.766Z,99.90
2023-05-22T07:16:07.923Z,99.90
2023-05-22T07:19:12.357Z,99.90
2023-05-22T07:22:16.690Z,99.90
2023-05-22T07:25:21.232Z,99.90
2023-05-22T07:28:26.011Z,99.90
2023-05-22T07:31:48.499Z,99.90
2023-05-22T07:34:52.250Z,99.90
2023-05-22T07:37:55.626Z,99.90
2023-05-22T07:40:59.522Z,99.90
2023-05-22T07:44:06.411Z,99.90
2023-05-22T07:47:12.929Z,99.90
2023-05-22T07:50:17.831Z,99.90
2023-05-22T07:53:22.619Z,99.90
2023-05-22T07:56:27.954Z,99.90
2023-05-22T07:59:34.548Z,99.90
2023-05-22T08:02:38.127Z,99.90
2023-05-22T08:05:41.462Z,99.90
2023-05-22T08:08:44.757Z,99.90
2023-05-22T08:11:48.302Z,99.90
2023-05-22T08:14:52.922Z,99.90
2023-05-22T08:17:56.386Z,99.90
2023-05-22T08:21:00.714Z,99.90
2023-05-22T08:24:04.047Z,99.90
2023-05-22T08:27:07.794Z,99.90
2023-05-22T08:30:12.961Z,99.90
2023-05-22T08:33:16.546Z,99.90
2023-05-22T08:36:20.253Z,99.90
2023-05-22T08:39:23.534Z,99.90
2023-05-22T08:42:26.889Z,99.90
2023-05-22T08:45:34.164Z,99.90
2023-05-22T08:48:38.380Z,99.90
2023-05-22T08:51:43.314Z,99.90
2023-05-22T08:54:53.283Z,99.90
2023-05-22T08:57:57.760Z,99.90
2023-05-22T09:01:03.358Z,99.90
2023-05-22T09:04:06.818Z,99.90
2023-05-22T09:07:10.327Z,99.90
2023-05-22T09:10:14.034Z,99.90
2023-05-22T09:13:26.556Z,99.90
2023-05-22T09:16:31.282Z,99.90
2023-05-22T09:19:35.266Z,99.90
2023-05-22T09:22:39.564Z,99.90
2023-05-22T09:25:44.116Z,99.90
2023-05-22T09:28:48.894Z,99.90
2023-05-22T09:31:53.858Z,99.90
2023-05-22T09:35:04.621Z,99.90
2023-05-22T09:38:10.860Z,99.90
2023-05-22T09:41:22.185Z,99.90
2023-05-22T09:44:26.934Z,99.90
2023-05-22T09:47:32.070Z,99.90
2023-05-22T09:50:35.640Z,99.90
2023-05-22T09:53:44.841Z,99.90
2023-05-22T09:56:50.888Z,99.90
2023-05-22T09:59:58.297Z,99.90
2023-05-22T10:03:12.036Z,99.90
2023-05-22T10:06:18.213Z,99.90
2023-05-22T10:09:25.739Z,99.90
2023-05-22T10:12:34.252Z,99.90
2023-05-22T10:15:37.687Z,99.90
2023-05-22T10:18:43.358Z,99.90
2023-05-22T10:21:47.900Z,99.90
2023-05-22T10:24:52.486Z,99.90
2023-05-22T10:27:56.964Z,99.90
2023-05-22T10:31:06.050Z,99.90
2023-05-22T10:34:52.791Z,99.90
2023-05-22T10:38:03.756Z,99.90
2023-05-22T10:41:08.039Z,99.90
2023-05-22T10:44:11.354Z,99.90
2023-05-22T10:47:16.008Z,99.90
2023-05-22T10:50:20.726Z,99.90
2023-05-22T10:53:25.517Z,99.90
2023-05-22T10:56:35.343Z,99.90
2023-05-22T10:59:38.905Z,99.90
2023-05-22T11:02:44.424Z,99.90
2023-05-22T11:05:54.998Z,99.90
2023-05-22T11:08:58.742Z,99.90
2023-05-22T11:12:25.128Z,99.90
2023-05-22T11:15:32.746Z,99.90
2023-05-22T11:18:36.130Z,99.90
2023-05-22T11:21:45.824Z,99.90
2023-05-22T11:24:49.411Z,99.90
2023-05-22T11:27:54.066Z,99.90
2023-05-22T11:30:58.530Z,99.90
2023-05-22T11:34:02.150Z,99.90
2023-05-22T11:37:07.044Z,99.90
2023-05-22T11:40:11.511Z,99.90
2023-05-22T11:43:14.805Z,99.90
2023-05-22T11:46:18.174Z,99.90
2023-05-22T11:49:24.002Z,99.90
2023-05-22T11:52:32.865Z,99.90
2023-05-22T11:55:36.262Z,99.90
2023-05-22T11:58:39.460Z,99.90
2023-05-22T12:01:42.717Z,99.90
2023-05-22T12:04:46.238Z,99.90
2023-05-22T12:07:51.444Z,99.90
2023-05-22T12:10:55.474Z,99.90
2023-05-22T12:14:02.165Z,99.90
2023-05-22T12:17:06.374Z,99.90
2023-05-22T12:20:14.317Z,99.90
2023-05-22T12:23:24.409Z,99.90
2023-05-22T12:26:27.425Z,99.90
2023-05-22T12:29:30.687Z,99.90
2023-05-22T12:32:33.951Z,99.90
2023-05-22T12:35:39.805Z,99.90
2023-05-22T12:38:45.034Z,99.90
2023-05-22T12:41:48.242Z,99.90
2023-05-22T12:44:54.075Z,99.90
2023-05-22T12:47:57.450Z,99.90
2023-05-22T12:51:00.897Z,99.90
2023-05-22T12:54:06.079Z,99.90
2023-05-22T12:57:09.762Z,99.90
2023-05-22T13:00:14.285Z,99.90
2023-05-22T13:03:17.692Z,99.90
2023-05-22T13:06:21.542Z,99.90
2023-05-22T13:09:26.241Z,99.90
2023-05-22T13:12:30.971Z,99.90
2023-05-22T13:15:36.131Z,99.90
2023-05-22T13:18:39.459Z,99.90
2023-05-22T13:21:43.367Z,99.90
2023-05-22T13:24:48.212Z,99.90
2023-05-22T13:27:51.583Z,99.90
2023-05-22T13:30:55.188Z,99.90
2023-05-22T13:33:59.169Z,99.90
2023-05-22T13:37:03.660Z,99.90
2023-05-22T13:40:09.771Z,99.90
2023-05-22T13:43:13.230Z,99.90
2023-05-22T13:46:18.062Z,99.90
2023-05-22T13:49:21.492Z,99.90
2023-05-22T13:52:24.795Z,99.90
2023-05-22T13:55:29.803Z,99.90
2023-05-22T13:58:33.191Z,99.90
2023-05-22T14:01:37.001Z,99.90
2023-05-22T14:04:41.339Z,99.90
2023-05-22T14:07:44.697Z,99.90
2023-05-22T14:10:49.496Z,99.90
2023-05-22T14:13:54.157Z,99.90
2023-05-22T14:16:57.498Z,99.90
2023-05-22T14:20:00.853Z,99.90
2023-05-22T14:23:04.166Z,99.90
2023-05-22T14:26:08.794Z,99.90
2023-05-22T14:29:12.550Z,99.90
2023-05-22T14:32:15.854Z,99.90
2023-05-22T14:35:19.146Z,99.90
2023-05-22T14:38:22.416Z,99.90
2023-05-22T14:41:27.169Z,99.90
2023-05-22T14:44:30.432Z,99.90
2023-05-22T14:47:33.710Z,99.90
2023-05-22T14:50:36.970Z,99.90
2023-05-22T14:53:40.551Z,99.90
2023-05-22T14:56:45.388Z,99.90
2023-05-22T14:59:48.698Z,99.90
2023-05-22T15:02:52.167Z,99.90
2023-05-22T15:05:55.511Z,99.90
2023-05-22T15:08:58.752Z,99.90
2023-05-22T15:12:03.469Z,99.90
2023-05-22T15:15:07.729Z,99.90
2023-05-22T15:18:11.485Z,99.90
2023-05-22T15:21:14.850Z,99.90
2023-05-22T15:24:18.188Z,99.90
2023-05-22T15:27:23.219Z,99.90
2023-05-22T15:30:27.289Z,99.90
2023-05-22T15:33:30.808Z,99.90
2023-05-22T15:36:36.487Z,99.90
2023-05-22T15:39:39.789Z,99.90
2023-05-22T15:42:44.517Z,99.90
2023-05-22T15:45:50.361Z,99.90
2023-05-22T15:48:54.634Z,99.90
2023-05-22T15:52:00.574Z,99.90
2023-05-22T15:55:04.885Z,99.90
2023-05-22T15:58:10.177Z,99.90
2023-05-22T16:01:13.694Z,99.90
2023-05-22T16:04:17.577Z,99.90
2023-05-22T16:07:20.922Z,99.90
2023-05-22T16:10:24.224Z,99.90
2023-05-22T16:13:29.250Z,99.90
2023-05-22T16:16:32.751Z,99.90
2023-05-22T16:19:36.253Z,99.90
2023-05-22T16:22:48.293Z,99.90
2023-05-22T16:25:52.273Z,99.90
2023-05-22T16:28:57.046Z,99.90
2023-05-22T16:32:00.339Z,99.90
2023-05-22T16:35:03.934Z,99.90
2023-05-22T16:38:11.669Z,99.90
2023-05-22T16:41:16.289Z,99.90
2023-05-22T16:44:21.216Z,99.90
2023-05-22T16:47:24.601Z,99.90
2023-05-22T16:50:28.467Z,99.90
2023-05-22T16:53:32.034Z,99.90
2023-05-22T16:56:35.708Z,99.90
2023-05-22T16:59:41.353Z,99.90
2023-05-22T17:02:44.941Z,99.90
2023-05-22T17:05:48.639Z,99.90
2023-05-22T17:08:52.065Z,99.90
2023-05-22T17:11:56.058Z,99.90
2023-05-22T17:15:01.531Z,99.90
2023-05-22T17:18:05.601Z,99.90
2023-05-22T17:21:10.279Z,99.90
2023-05-22T17:24:14.792Z,99.90
2023-05-22T17:27:34.409Z,99.90
2023-05-22T17:30:40.852Z,99.90
2023-05-22T17:33:45.234Z,99.90
2023-05-22T17:36:49.530Z,99.90
2023-05-22T17:39:53.176Z,99.90
2023-05-22T17:42:58.144Z,99.90
2023-05-22T17:46:04.436Z,99.90
2023-05-22T17:49:08.107Z,99.90
2023-05-22T17:52:13.030Z,99.90
2023-05-22T17:55:16.452Z,99.90
2023-05-22T17:58:20.607Z,1.00
2023-05-22T18:01:27.209Z,1.00
2023-05-22T18:04:30.776Z,1.00
2023-05-22T18:07:34.178Z,1.00
2023-05-22T18:10:37.600Z,7.40
2023-05-22T18:13:41.576Z,57.90
2023-05-22T18:16:46.350Z,53.60
2023-05-22T18:19:49.937Z,60.00
2023-05-22T18:22:53.393Z,65.20
2023-05-22T18:25:57.331Z,93.80
2023-05-22T18:29:00.911Z,99.90
2023-05-22T18:32:09.336Z,99.90
2023-05-22T18:35:12.956Z,99.90
2023-05-22T18:38:16.590Z,99.90
2023-05-22T18:41:19.968Z,99.90
2023-05-22T18:44:23.741Z,99.90
2023-05-22T18:47:28.764Z,99.90
2023-05-22T18:50:32.249Z,99.90
2023-05-22T18:53:35.574Z,99.90
2023-05-22T18:56:39.349Z,99.90
2023-05-22T18:59:43.500Z,99.90
2023-05-22T19:02:48.766Z,99.90
2023-05-22T19:05:52.512Z,99.90
2023-05-22T19:08:56.189Z,99.90
2023-05-22T19:11:59.567Z,99.90
2023-05-22T19:15:02.966Z,99.90
2023-05-22T19:18:07.779Z,99.90
2023-05-22T19:21:11.957Z,99.90
2023-05-22T19:24:15.435Z,99.90
2023-05-22T19:27:19.106Z,99.90
2023-05-22T19:30:22.534Z,99.90
2023-05-22T19:33:27.599Z,99.90
2023-05-22T19:36:32.670Z,99.90
2023-05-22T19:39:36.042Z,99.90
2023-05-22T19:42:39.966Z,99.90
2023-05-22T19:45:45.356Z,99.90
2023-05-22T19:48:52.345Z,99.90
2023-05-22T19:51:56.313Z,99.90
2023-05-22T19:54:59.881Z,99.90
2023-05-22T19:58:03.611Z,99.90
2023-05-22T20:01:06.910Z,99.90
2023-05-22T20:04:14.559Z,99.90
2023-05-22T20:07:18.072Z,99.90
2023-05-22T20:10:23.878Z,99.90
2023-05-22T20:13:27.422Z,99.90
2023-05-22T20:16:31.865Z,99.90
2023-05-22T20:19:39.500Z,99.90
2023-05-22T20:22:45.724Z,99.90
2023-05-22T20:25:49.215Z,99.90
2023-05-22T20:28:56.415Z,99.90
2023-05-22T20:32:02.235Z,99.90
2023-05-22T20:35:10.971Z,99.90
2023-05-22T20:38:16.334Z,99.90
2023-05-22T20:41:20.554Z,99.90
2023-05-22T20:44:24.763Z,99.90
2023-05-22T20:47:28.312Z,99.90
2023-05-22T20:50:36.155Z,99.90
2023-05-22T20:53:41.161Z,99.90
2023-05-22T20:56:44.530Z,99.90
2023-05-22T20:59:47.859Z,99.90
2023-05-22T21:02:51.192Z,99.90
2023-05-22T21:05:55.980Z,99.90
2023-05-22T21:09:01.570Z,99.90
2023-05-22T21:12:05.139Z,99.90
2023-05-22T21:15:09.718Z,99.90
2023-05-22T21:18:13.088Z,99.90
2023-05-22T21:21:21.570Z,99.90
2023-05-22T21:24:24.902Z,99.90
2023-05-22T21:27:28.451Z,99.90
2023-05-22T21:30:32.479Z,99.90
2023-05-22T21:33:36.381Z,99.90
2023-05-22T21:36:41.309Z,99.90
2023-05-22T21:39:44.591Z,99.90
2023-05-22T21:42:47.923Z,99.90
2023-05-22T21:45:51.250Z,99.90
2023-05-22T21:48:54.745Z,99.90
2023-05-22T21:51:59.450Z,99.90
2023-05-22T21:55:02.987Z,99.90
2023-05-22T21:58:06.333Z,99.90
2023-05-22T22:01:10.045Z,99.90
2023-05-22T22:04:13.382Z,99.90
2023-05-22T22:07:18.111Z,99.90
2023-05-22T22:10:21.391Z,99.90
2023-05-22T22:13:24.675Z,99.90
2023-05-22T22:16:28.478Z,99.90
2023-05-22T22:19:31.822Z,99.90
2023-05-22T22:22:36.894Z,99.90
2023-05-22T22:25:40.298Z,99.90
2023-05-22T22:28:43.637Z,99.90
2023-05-22T22:31:47.128Z,99.90
2023-05-22T22:34:53.807Z,99.90
2023-05-22T22:37:58.503Z,99.90
2023-05-22T22:41:02.089Z,99.90
2023-05-22T22:44:05.390Z,99.90
2023-05-22T22:47:09.209Z,99.90
2023-05-22T22:50:12.738Z,99.90
2023-05-22T22:53:17.476Z,99.90
2023-05-22T22:56:21.049Z,99.90
2023-05-22T22:59:24.379Z,99.90
2023-05-22T23:02:27.692Z,99.90
2023-05-22T23:05:31.076Z,99.90
2023-05-22T23:08:35.750Z,99.90
2023-05-22T23:11:39.330Z,99.90
2023-05-22T23:14:42.532Z,99.90
2023-05-22T23:17:45.970Z,99.90
2023-05-22T23:20:49.380Z,99.90
2023-05-22T23:23:54.010Z,99.90
2023-05-22T23:26:57.164Z,99.90
2023-05-22T23:30:00.377Z,99.90
2023-05-22T23:33:06.047Z,99.90
2023-05-22T23:36:09.324Z,99.90
2023-05-22T23:39:13.972Z,99.90
2023-05-22T23:42:18.016Z,99.90
2023-05-22T23:45:21.322Z,99.90
2023-05-22T23:48:24.613Z,99.90
2023-05-22T23:51:27.830Z,99.90
2023-05-22T23:54:32.408Z,99.90
2023-05-22T23:57:35.671Z,99.90
